Time;durP1;ratioP1;P1;durP2;ratioP2;P2;SDS_P1;SDS_P2;PMS_P1;PMS_P2;Temp;Humidity;BMP_temperature;BMP_pressure;BME280_temperature;BME280_humidity;BME280_pressure;Samples;Min_cycle;Max_cycle;Signal;HPM_P1;HPM_P2
2023/06/01 00:01:47;;;;;;;;;;;19.30;99.90;;;;;;5075716;28;20018;-64
2023/06/01 00:04:13;;;;;;;;;;;19.30;99.90;;;;;;5075851;28;20034;-64
2023/06/01 00:06:39;;;;;;;;;;;19.10;99.90;;;;;;5075944;28;20028;-61
2023/06/01 00:09:05;;;;;;;;;;;19.10;99.90;;;;;;5075776;28;19989;-62
2023/06/01 00:11:30;;;;;;;;;;;19.10;99.90;;;;;;5075671;28;19992;-65
2023/06/01 00:13:56;;;;;;;;;;;19.10;99.90;;;;;;5075765;28;19982;-65
2023/06/01 00:16:22;;;;;;;;;;;19.10;99.90;;;;;;5073385;28;20019;-62
2023/06/01 00:18:48;;;;;;;;;;;19.10;99.90;;;;;;5075671;28;20448;-64
2023/06/01 00:21:14;;;;;;;;;;;19.00;99.90;;;;;;5075574;28;19985;-62
2023/06/01 00:23:40;;;;;;;;;;;19.00;99.90;;;;;;5075621;28;19988;-65
2023/06/01 00:26:07;;;;;;;;;;;18.90;99.90;;;;;;5075471;28;20347;-63
2023/06/01 00:28:32;;;;;;;;;;;18.90;99.90;;;;;;5075856;28;19985;-64
2023/06/01 00:30:58;;;;;;;;;;;18.90;99.90;;;;;;5075437;28;19985;-63
2023/06/01 00:33:23;;;;;;;;;;;18.90;99.90;;;;;;5075047;28;20459;-64
2023/06/01 00:35:49;;;;;;;;;;;18.80;99.90;;;;;;5075369;28;19981;-64
2023/06/01 00:38:15;;;;;;;;;;;18.70;99.90;;;;;;5075553;28;20021;-64
2023/06/01 00:40:40;;;;;;;;;;;18.60;99.90;;;;;;5075172;28;19982;-63
2023/06/01 00:43:06;;;;;;;;;;;18.50;99.90;;;;;;5075081;28;20345;-62
2023/06/01 00:45:32;;;;;;;;;;;18.50;99.90;;;;;;5075150;28;20035;-64
2023/06/01 00:47:57;;;;;;;;;;;18.50;99.90;;;;;;5074767;28;19981;-61
2023/06/01 00:50:23;;;;;;;;;;;18.40;99.90;;;;;;5075133;28;19986;-64
2023/06/01 00:52:49;;;;;;;;;;;18.50;99.90;;;;;;5074837;28;20014;-64
2023/06/01 00:55:15;;;;;;;;;;;18.50;99.90;;;;;;5074897;28;20486;-65
2023/06/01 00:57:42;;;;;;;;;;;18.50;99.90;;;;;;5074834;28;19986;-64
2023/06/01 01:00:11;;;;;;;;;;;18.50;99.90;;;;;;5074819;28;20020;-62
2023/06/01 01:02:38;;;;;;;;;;;18.50;99.90;;;;;;5074649;28;20047;-63
2023/06/01 01:05:09;;;;;;;;;;;18.50;99.90;;;;;;5074928;28;20027;-64
2023/06/01 01:07:41;;;;;;;;;;;18.50;99.90;;;;;;5074972;28;20008;-63
2023/06/01 01:10:09;;;;;;;;;;;18.40;99.90;;;;;;5074529;28;20020;-64
2023/06/01 01:12:53;;;;;;;;;;;18.30;99.90;;;;;;5074516;28;20056;-63
2023/06/01 01:15:19;;;;;;;;;;;18.40;99.90;;;;;;5074440;28;20414;-64
2023/06/01 01:17:45;;;;;;;;;;;18.30;99.90;;;;;;5074612;28;20076;-62
2023/06/01 01:20:33;;;;;;;;;;;18.30;99.90;;;;;;5074697;28;19985;-65
2023/06/01 01:23:28;;;;;;;;;;;18.20;99.90;;;;;;5074267;28;19990;-63
2023/06/01 01:26:12;;;;;;;;;;;18.30;99.90;;;;;;5074085;28;20466;-64
2023/06/01 01:28:48;;;;;;;;;;;18.40;99.90;;;;;;5074301;28;19982;-62
2023/06/01 01:31:16;;;;;;;;;;;18.50;99.90;;;;;;5074045;28;19988;-65
2023/06/01 01:33:43;;;;;;;;;;;18.50;99.90;;;;;;5074447;28;20019;-63
2023/06/01 01:36:09;;;;;;;;;;;18.50;99.90;;;;;;5074187;28;19982;-63
2023/06/01 01:38:35;;;;;;;;;;;18.60;99.90;;;;;;5074309;28;19992;-63
2023/06/01 01:41:02;;;;;;;;;;;18.60;99.90;;;;;;5074395;28;20172;-63
2023/06/01 01:43:28;;;;;;;;;;;18.50;99.90;;;;;;5074013;28;19986;-64
2023/06/01 01:46:25;;;;;;;;;;;18.50;99.90;;;;;;5073716;28;19987;-63
2023/06/01 01:49:01;;;;;;;;;;;18.50;99.90;;;;;;5069425;28;19986;-62
2023/06/01 01:51:33;;;;;;;;;;;18.50;99.90;;;;;;5073906;28;19986;-63
2023/06/01 01:53:58;;;;;;;;;;;18.50;99.90;;;;;;5072657;28;20363;-63
2023/06/01 01:56:25;;;;;;;;;;;18.40;99.90;;;;;;5073892;28;19982;-64
2023/06/01 01:58:51;;;;;;;;;;;18.30;99.90;;;;;;5074063;28;20002;-64
2023/06/01 02:01:18;;;;;;;;;;;18.20;99.90;;;;;;5073455;28;20025;-64
2023/06/01 02:03:43;;;;;;;;;;;18.10;99.90;;;;;;5073754;28;20029;-64
2023/06/01 02:06:09;;;;;;;;;;;18.00;99.90;;;;;;5073766;28;20406;-64
2023/06/01 02:08:35;;;;;;;;;;;17.90;99.90;;;;;;5074048;28;20043;-65
2023/06/01 02:11:00;;;;;;;;;;;17.90;99.90;;;;;;5073727;28;20028;-63
2023/06/01 02:13:26;;;;;;;;;;;18.00;99.90;;;;;;5073862;28;20459;-64
2023/06/01 02:15:51;;;;;;;;;;;18.00;99.90;;;;;;5073473;28;20341;-64
2023/06/01 02:18:17;;;;;;;;;;;18.00;99.90;;;;;;5073658;28;20348;-63
2023/06/01 02:20:44;;;;;;;;;;;18.00;99.90;;;;;;5073552;28;20016;-62
2023/06/01 02:23:09;;;;;;;;;;;18.00;99.90;;;;;;5073655;28;19981;-63
2023/06/01 02:25:35;;;;;;;;;;;18.00;99.90;;;;;;5073599;28;19988;-62
2023/06/01 02:28:01;;;;;;;;;;;18.00;99.90;;;;;;5073487;28;20454;-64
2023/06/01 02:30:27;;;;;;;;;;;18.00;99.90;;;;;;5073328;28;20077;-62
2023/06/01 02:32:52;;;;;;;;;;;18.00;99.90;;;;;;5073623;28;20107;-65
2023/06/01 02:35:18;;;;;;;;;;;18.10;99.90;;;;;;5073446;28;19982;-62
2023/06/01 02:37:43;;;;;;;;;;;18.10;99.90;;;;;;5073662;28;19982;-62
2023/06/01 02:40:12;;;;;;;;;;;18.10;99.90;;;;;;5077628;28;19988;-65
2023/06/01 02:42:38;;;;;;;;;;;18.10;99.90;;;;;;5077487;28;20064;-65
2023/06/01 02:45:07;;;;;;;;;;;18.10;99.90;;;;;;5077077;28;20467;-62
2023/06/01 02:47:32;;;;;;;;;;;18.10;99.90;;;;;;5077462;28;20038;-64
2023/06/01 02:49:58;;;;;;;;;;;18.10;99.90;;;;;;5077368;28;19985;-64
2023/06/01 02:52:23;;;;;;;;;;;18.20;99.90;;;;;;5077067;28;20058;-63
2023/06/01 02:54:49;;;;;;;;;;;18.20;99.90;;;;;;5077557;28;20038;-62
2023/06/01 02:57:15;;;;;;;;;;;18.10;99.90;;;;;;5077129;28;19986;-62
2023/06/01 02:59:40;;;;;;;;;;;18.00;99.90;;;;;;5075623;28;20004;-64
2023/06/01 03:02:06;;;;;;;;;;;18.00;99.90;;;;;;5076966;28;20379;-62
2023/06/01 03:04:32;;;;;;;;;;;18.00;99.90;;;;;;5077095;28;20009;-64
2023/06/01 03:06:58;;;;;;;;;;;18.00;99.90;;;;;;5076928;28;20048;-64
2023/06/01 03:09:25;;;;;;;;;;;18.00;99.90;;;;;;5077024;28;19982;-64
2023/06/01 03:11:50;;;;;;;;;;;18.00;99.90;;;;;;5076690;28;20376;-64
2023/06/01 03:14:16;;;;;;;;;;;18.00;99.90;;;;;;5076875;28;19988;-62
2023/06/01 03:16:41;;;;;;;;;;;18.00;99.90;;;;;;5077066;28;20355;-64
2023/06/01 03:19:07;;;;;;;;;;;18.00;99.90;;;;;;5076789;28;20004;-62
2023/06/01 03:21:32;;;;;;;;;;;18.00;99.90;;;;;;5076748;28;20047;-64
2023/06/01 03:23:58;;;;;;;;;;;18.10;99.90;;;;;;5076862;28;19993;-62
2023/06/01 03:26:24;;;;;;;;;;;18.10;99.90;;;;;;5076659;28;19985;-63
2023/06/01 03:28:50;;;;;;;;;;;18.10;99.90;;;;;;5076409;28;19986;-64
2023/06/01 03:31:15;;;;;;;;;;;18.10;99.90;;;;;;5076473;28;19981;-64
2023/06/01 03:33:41;;;;;;;;;;;18.10;99.90;;;;;;5076454;28;20010;-65
2023/06/01 03:36:07;;;;;;;;;;;18.00;99.90;;;;;;5076563;28;20036;-63
2023/06/01 03:38:34;;;;;;;;;;;18.00;99.90;;;;;;5076371;28;20082;-65
2023/06/01 03:41:00;;;;;;;;;;;18.00;99.90;;;;;;5076498;28;20084;-62
2023/06/01 03:43:25;;;;;;;;;;;18.00;99.90;;;;;;5076061;28;20119;-65
2023/06/01 03:45:51;;;;;;;;;;;18.00;99.90;;;;;;5076248;28;19982;-64
2023/06/01 03:48:16;;;;;;;;;;;18.00;99.90;;;;;;5076388;28;19981;-64
2023/06/01 03:50:42;;;;;;;;;;;18.00;99.90;;;;;;5076241;28;20508;-62
2023/06/01 03:53:07;;;;;;;;;;;17.90;99.90;;;;;;5076149;28;20371;-63
2023/06/01 03:55:34;;;;;;;;;;;17.80;99.90;;;;;;5075881;28;19981;-65
2023/06/01 03:58:02;;;;;;;;;;;17.80;99.90;;;;;;5076083;28;19988;-63
2023/06/01 04:00:28;;;;;;;;;;;17.90;99.90;;;;;;5076068;28;20021;-65
2023/06/01 04:02:54;;;;;;;;;;;17.90;99.90;;;;;;5075944;28;19981;-64
2023/06/01 04:05:20;;;;;;;;;;;17.90;99.90;;;;;;5076070;28;19981;-62
2023/06/01 04:07:46;;;;;;;;;;;17.90;99.90;;;;;;5076222;28;20347;-61
2023/06/01 04:10:13;;;;;;;;;;;17.80;99.90;;;;;;5075752;28;20480;-64
2023/06/01 04:12:46;;;;;;;;;;;17.80;99.90;;;;;;5075701;28;20006;-62
2023/06/01 04:15:13;;;;;;;;;;;17.80;99.90;;;;;;5075807;28;20410;-64
2023/06/01 04:17:39;;;;;;;;;;;17.80;99.90;;;;;;5075684;28;19989;-65
2023/06/01 04:20:09;;;;;;;;;;;17.90;99.90;;;;;;5076010;28;19981;-63
2023/06/01 04:22:38;;;;;;;;;;;18.00;99.90;;;;;;5075861;28;19986;-64
2023/06/01 04:25:08;;;;;;;;;;;18.00;99.90;;;;;;5075874;28;20021;-62
2023/06/01 04:27:36;;;;;;;;;;;18.00;99.90;;;;;;5075640;28;19982;-64
2023/06/01 04:30:03;;;;;;;;;;;18.10;99.90;;;;;;5075381;28;19985;-64
2023/06/01 04:32:29;;;;;;;;;;;18.10;99.90;;;;;;5075392;28;20012;-63
2023/06/01 04:34:56;;;;;;;;;;;18.10;99.90;;;;;;5075390;28;20068;-62
2023/06/01 04:37:22;;;;;;;;;;;18.20;99.90;;;;;;5075337;28;20424;-64
2023/06/01 04:39:51;;;;;;;;;;;18.30;99.90;;;;;;5075030;28;20024;-63
2023/06/01 04:42:18;;;;;;;;;;;18.20;99.90;;;;;;5075313;28;19981;-63
2023/06/01 04:44:46;;;;;;;;;;;18.30;99.90;;;;;;5075523;28;20076;-61
2023/06/01 04:47:12;;;;;;;;;;;18.30;99.90;;;;;;5075113;28;20000;-62
2023/06/01 04:49:41;;;;;;;;;;;18.40;99.90;;;;;;5075328;28;19985;-64
2023/06/01 04:52:07;;;;;;;;;;;18.40;99.90;;;;;;5074872;28;20016;-62
2023/06/01 04:54:33;;;;;;;;;;;18.50;99.90;;;;;;5074800;28;19985;-63
2023/06/01 04:56:58;;;;;;;;;;;18.40;99.90;;;;;;5074846;28;20009;-62
2023/06/01 04:59:24;;;;;;;;;;;18.40;99.90;;;;;;5074799;28;20005;-64
2023/06/01 05:01:49;;;;;;;;;;;18.40;99.90;;;;;;5073941;28;20549;-62
2023/06/01 05:04:15;;;;;;;;;;;18.40;99.90;;;;;;5074539;28;20051;-64
2023/06/01 05:06:41;;;;;;;;;;;18.40;99.90;;;;;;5074588;28;19981;-63
2023/06/01 05:09:07;;;;;;;;;;;18.40;99.90;;;;;;5074250;28;19989;-63
2023/06/01 05:11:33;;;;;;;;;;;18.40;99.90;;;;;;5074420;28;19989;-64
2023/06/01 05:14:01;;;;;;;;;;;18.40;99.90;;;;;;5074494;28;19992;-64
2023/06/01 05:16:30;;;;;;;;;;;18.50;99.90;;;;;;5073245;28;20397;-64
2023/06/01 05:18:56;;;;;;;;;;;18.50;99.90;;;;;;5073699;28;19982;-63
2023/06/01 05:21:21;;;;;;;;;;;18.60;99.90;;;;;;5074337;28;19992;-64
2023/06/01 05:23:47;;;;;;;;;;;18.60;99.90;;;;;;5074007;28;19987;-65
2023/06/01 05:26:13;;;;;;;;;;;18.60;99.90;;;;;;5074258;28;20501;-62
2023/06/01 05:28:38;;;;;;;;;;;18.60;99.90;;;;;;5073058;28;19981;-64
2023/06/01 05:31:04;;;;;;;;;;;18.60;99.90;;;;;;5074109;28;19985;-63
2023/06/01 05:33:29;;;;;;;;;;;18.40;99.90;;;;;;5074103;28;20467;-64
2023/06/01 05:35:55;;;;;;;;;;;18.30;99.90;;;;;;5074040;28;19986;-66
2023/06/01 05:38:21;;;;;;;;;;;18.20;99.90;;;;;;5073871;28;19986;-64
2023/06/01 05:40:46;;;;;;;;;;;18.10;99.90;;;;;;5073362;28;20017;-63
2023/06/01 05:43:12;;;;;;;;;;;18.20;99.90;;;;;;5074013;28;20008;-64
2023/06/01 05:45:37;;;;;;;;;;;18.20;99.90;;;;;;5073903;28;20004;-65
2023/06/01 05:48:03;;;;;;;;;;;18.20;99.90;;;;;;5073647;28;20126;-62
2023/06/01 05:50:29;;;;;;;;;;;18.20;99.90;;;;;;5073247;28;20439;-65
2023/06/01 05:52:54;;;;;;;;;;;18.30;99.90;;;;;;5073225;28;20005;-65
2023/06/01 05:55:20;;;;;;;;;;;18.30;99.90;;;;;;5073820;28;19981;-65
2023/06/01 05:57:45;;;;;;;;;;;18.30;99.90;;;;;;5073742;28;20472;-62
2023/06/01 06:00:13;;;;;;;;;;;18.30;99.90;;;;;;5072961;28;20091;-66
2023/06/01 06:02:39;;;;;;;;;;;18.40;99.90;;;;;;5073836;28;19989;-65
2023/06/01 06:05:06;;;;;;;;;;;18.50;99.90;;;;;;5070774;28;19985;-65
2023/06/01 06:07:32;;;;;;;;;;;18.50;99.90;;;;;;5092761;28;19989;-64
2023/06/01 06:09:57;;;;;;;;;;;18.60;99.90;;;;;;5093563;28;19993;-65
2023/06/01 06:12:25;;;;;;;;;;;18.80;99.90;;;;;;5093123;28;20005;-65
2023/06/01 06:14:51;;;;;;;;;;;19.00;99.90;;;;;;5093051;28;20096;-64
2023/06/01 06:17:17;;;;;;;;;;;19.10;99.90;;;;;;5093299;28;20501;-63
2023/06/01 06:19:43;;;;;;;;;;;19.30;99.90;;;;;;5092579;28;20092;-65
2023/06/01 06:22:09;;;;;;;;;;;19.50;99.90;;;;;;5094162;28;19992;-63
2023/06/01 06:24:35;;;;;;;;;;;19.60;99.90;;;;;;5093677;28;20016;-64
2023/06/01 06:27:00;;;;;;;;;;;19.80;99.90;;;;;;5093775;28;19982;-63
2023/06/01 06:29:26;;;;;;;;;;;19.90;99.90;;;;;;5093764;28;20030;-63
2023/06/01 06:31:51;;;;;;;;;;;19.90;99.90;;;;;;5093901;28;20075;-63
2023/06/01 06:34:17;;;;;;;;;;;19.90;99.90;;;;;;5093631;28;19988;-63
2023/06/01 06:36:43;;;;;;;;;;;19.90;99.90;;;;;;5088277;28;19989;-64
2023/06/01 06:39:08;;;;;;;;;;;19.90;99.90;;;;;;5086559;28;20087;-64
2023/06/01 06:41:34;;;;;;;;;;;20.00;99.90;;;;;;5092964;28;20030;-62
2023/06/01 06:44:00;;;;;;;;;;;20.20;99.90;;;;;;5081503;28;20037;-64
2023/06/01 06:46:25;;;;;;;;;;;20.30;99.90;;;;;;5072380;28;19997;-62
2023/06/01 06:48:51;;;;;;;;;;;20.50;99.90;;;;;;5070366;28;19988;-61
2023/06/01 06:51:16;;;;;;;;;;;20.70;99.90;;;;;;5070711;28;20558;-64
2023/06/01 06:53:42;;;;;;;;;;;21.10;99.90;;;;;;5090914;28;20104;-62
2023/06/01 06:56:08;;;;;;;;;;;21.20;99.90;;;;;;5091468;28;19985;-63
2023/06/01 06:58:33;;;;;;;;;;;21.30;99.90;;;;;;5086797;28;20002;-63
2023/06/01 07:01:04;;;;;;;;;;;21.40;99.90;;;;;;5107384;28;20066;-64
2023/06/01 07:03:30;;;;;;;;;;;21.60;99.90;;;;;;5107885;28;19981;-61
2023/06/01 07:05:56;;;;;;;;;;;21.60;99.90;;;;;;5087537;28;19985;-62
2023/06/01 07:08:21;;;;;;;;;;;22.00;99.90;;;;;;5091381;28;20432;-64
2023/06/01 07:10:47;;;;;;;;;;;22.60;99.90;;;;;;5087012;28;20346;-64
2023/06/01 07:13:13;;;;;;;;;;;23.40;99.90;;;;;;5073787;28;20016;-63
2023/06/01 07:15:38;;;;;;;;;;;23.70;99.90;;;;;;5072342;28;19985;-63
2023/06/01 07:18:04;;;;;;;;;;;23.70;99.90;;;;;;5072149;28;20320;-65
2023/06/01 07:20:30;;;;;;;;;;;23.80;99.90;;;;;;5082827;28;20048;-65
2023/06/01 07:22:55;;;;;;;;;;;23.90;99.90;;;;;;5091603;28;20016;-62
2023/06/01 07:25:21;;;;;;;;;;;24.20;99.90;;;;;;5093952;28;20473;-66
2023/06/01 07:27:48;;;;;;;;;;;24.10;99.90;;;;;;5094968;28;20004;-63
2023/06/01 07:30:14;;;;;;;;;;;24.20;99.90;;;;;;5095198;28;19982;-64
2023/06/01 07:32:40;;;;;;;;;;;24.50;99.90;;;;;;5095265;28;20001;-63
2023/06/01 07:35:06;;;;;;;;;;;25.00;99.90;;;;;;5095491;28;19992;-63
2023/06/01 07:37:31;;;;;;;;;;;26.40;99.90;;;;;;5094640;28;19981;-62
2023/06/01 07:39:57;;;;;;;;;;;28.10;98.60;;;;;;5095327;28;20196;-66
2023/06/01 07:42:23;;;;;;;;;;;29.40;96.30;;;;;;5096457;28;19992;-65
2023/06/01 07:44:48;;;;;;;;;;;29.60;93.70;;;;;;5094960;28;19988;-64
2023/06/01 07:47:14;;;;;;;;;;;29.30;93.50;;;;;;5080640;28;20294;-60
2023/06/01 07:49:40;;;;;;;;;;;29.90;93.00;;;;;;5081108;28;20128;-62
2023/06/01 07:52:06;;;;;;;;;;;29.40;91.40;;;;;;5079515;28;20652;-60
2023/06/01 07:54:32;;;;;;;;;;;28.40;93.00;;;;;;5072103;28;19993;-62
2023/06/01 07:56:58;;;;;;;;;;;27.90;94.50;;;;;;5072008;28;19985;-63
2023/06/01 07:59:24;;;;;;;;;;;27.70;94.50;;;;;;5091817;28;20051;-64
2023/06/01 08:01:50;;;;;;;;;;;28.10;94.30;;;;;;5095020;28;20028;-65
2023/06/01 08:04:16;;;;;;;;;;;28.60;93.40;;;;;;5079149;28;19998;-63
2023/06/01 08:06:43;;;;;;;;;;;28.10;93.60;;;;;;5087306;28;20024;-64
2023/06/01 08:09:09;;;;;;;;;;;27.50;94.00;;;;;;5071366;28;20039;-64
2023/06/01 08:11:35;;;;;;;;;;;27.30;94.50;;;;;;5073492;28;19986;-64
2023/06/01 08:14:02;;;;;;;;;;;26.90;94.30;;;;;;5077399;28;19999;-65
2023/06/01 08:16:29;;;;;;;;;;;26.30;94.50;;;;;;5092915;28;19991;-63
2023/06/01 08:18:56;;;;;;;;;;;26.20;95.20;;;;;;5073579;28;19989;-63
2023/06/01 08:21:23;;;;;;;;;;;26.80;94.90;;;;;;5073879;28;19986;-63
2023/06/01 08:23:51;;;;;;;;;;;27.40;94.20;;;;;;5074582;28;20490;-63
2023/06/01 08:26:18;;;;;;;;;;;28.70;93.80;;;;;;5075041;28;20008;-64
2023/06/01 08:28:51;;;;;;;;;;;29.50;92.00;;;;;;5056809;28;19993;-62
2023/06/01 08:31:21;;;;;;;;;;;30.30;90.80;;;;;;5075388;28;20420;-64
2023/06/01 08:33:47;;;;;;;;;;;31.40;90.20;;;;;;5073255;28;20005;-63
2023/06/01 08:36:12;;;;;;;;;;;31.90;86.70;;;;;;5073113;28;19990;-61
2023/06/01 08:38:39;;;;;;;;;;;31.20;85.10;;;;;;5077540;28;20008;-63
2023/06/01 08:41:11;;;;;;;;;;;30.40;88.60;;;;;;5092078;28;20451;-62
2023/06/01 08:43:40;;;;;;;;;;;29.70;87.90;;;;;;5088383;28;20142;-64
2023/06/01 08:46:06;;;;;;;;;;;28.80;89.30;;;;;;5080143;28;19989;-62
2023/06/01 08:48:31;;;;;;;;;;;28.10;89.60;;;;;;5083466;28;19999;-63
2023/06/01 08:50:58;;;;;;;;;;;27.00;90.60;;;;;;5086644;28;19985;-61
2023/06/01 08:53:26;;;;;;;;;;;26.40;90.60;;;;;;5104688;28;20008;-62
2023/06/01 08:55:52;;;;;;;;;;;25.90;92.60;;;;;;5076533;28;20080;-65
2023/06/01 08:58:18;;;;;;;;;;;26.00;91.80;;;;;;5071481;28;19993;-62
2023/06/01 09:00:46;;;;;;;;;;;26.20;92.60;;;;;;5088011;28;20394;-62
2023/06/01 09:03:13;;;;;;;;;;;26.70;91.90;;;;;;5088799;28;20049;-63
2023/06/01 09:05:41;;;;;;;;;;;27.60;92.10;;;;;;5091007;28;20355;-62
2023/06/01 09:08:07;;;;;;;;;;;28.70;90.70;;;;;;5091284;28;19982;-62
2023/06/01 09:10:39;;;;;;;;;;;29.40;87.30;;;;;;5091908;28;19988;-63
2023/06/01 09:13:05;;;;;;;;;;;29.10;88.30;;;;;;5093402;28;20052;-65
2023/06/01 09:15:49;;;;;;;;;;;28.90;88.00;;;;;;5091390;28;20026;-62
2023/06/01 09:18:15;;;;;;;;;;;28.80;88.50;;;;;;5087457;28;19989;-60
2023/06/01 09:20:44;;;;;;;;;;;28.40;88.30;;;;;;5077201;28;20175;-60
2023/06/01 09:23:09;;;;;;;;;;;28.20;86.90;;;;;;5073634;28;20071;-64
2023/06/01 09:25:45;;;;;;;;;;;28.50;89.00;;;;;;5089592;28;20068;-64
2023/06/01 09:28:11;;;;;;;;;;;28.30;87.40;;;;;;5093603;28;20426;-63
2023/06/01 09:30:45;;;;;;;;;;;29.10;87.70;;;;;;5090170;28;20100;-63
2023/06/01 09:33:15;;;;;;;;;;;30.00;85.70;;;;;;5087045;28;20008;-62
2023/06/01 09:35:43;;;;;;;;;;;31.10;82.70;;;;;;5089671;28;20076;-62
2023/06/01 09:38:09;;;;;;;;;;;31.80;80.60;;;;;;5080852;28;20348;-63
2023/06/01 09:40:37;;;;;;;;;;;32.40;75.90;;;;;;5091013;28;19981;-65
2023/06/01 09:43:02;;;;;;;;;;;32.40;75.80;;;;;;5087734;28;20447;-64
2023/06/01 09:45:30;;;;;;;;;;;32.30;73.50;;;;;;5092255;28;20003;-65
2023/06/01 09:48:14;;;;;;;;;;;32.30;75.70;;;;;;5085770;28;19985;-64
2023/06/01 09:50:42;;;;;;;;;;;32.70;73.20;;;;;;5088110;28;19988;-65
2023/06/01 09:53:07;;;;;;;;;;;32.90;74.00;;;;;;5089226;28;20611;-66
2023/06/01 09:55:33;;;;;;;;;;;33.10;74.50;;;;;;5083068;28;19997;-67
2023/06/01 09:58:19;;;;;;;;;;;32.90;72.20;;;;;;5075002;28;19993;-65
2023/06/01 10:00:49;;;;;;;;;;;33.30;75.30;;;;;;5074939;28;20348;-65
2023/06/01 10:03:15;;;;;;;;;;;32.90;71.20;;;;;;5093498;28;19985;-63
2023/06/01 10:05:41;;;;;;;;;;;32.90;71.00;;;;;;5088536;28;20015;-62
2023/06/01 10:08:08;;;;;;;;;;;32.10;73.10;;;;;;5090635;28;19985;-65
2023/06/01 10:10:34;;;;;;;;;;;31.70;72.40;;;;;;5075708;28;19989;-65
2023/06/01 10:12:59;;;;;;;;;;;31.80;75.40;;;;;;5079596;28;20012;-62
2023/06/01 10:15:25;;;;;;;;;;;31.50;75.00;;;;;;5093795;28;20072;-63
2023/06/01 10:17:51;;;;;;;;;;;31.00;75.50;;;;;;5077991;28;19986;-62
2023/06/01 10:20:16;;;;;;;;;;;30.30;75.30;;;;;;5073863;28;19993;-63
2023/06/01 10:22:42;;;;;;;;;;;29.70;78.00;;;;;;5078498;28;20031;-64
2023/06/01 10:25:10;;;;;;;;;;;29.10;78.00;;;;;;5085822;28;19996;-62
2023/06/01 10:27:40;;;;;;;;;;;28.80;80.10;;;;;;5091339;28;20050;-64
2023/06/01 10:30:07;;;;;;;;;;;28.50;80.30;;;;;;5092464;28;20443;-66
2023/06/01 10:32:36;;;;;;;;;;;28.20;79.80;;;;;;5076707;28;20479;-65
2023/06/01 10:35:02;;;;;;;;;;;28.00;81.30;;;;;;5081691;28;19989;-65
2023/06/01 10:37:28;;;;;;;;;;;27.80;81.00;;;;;;5080974;28;19985;-63
2023/06/01 10:40:09;;;;;;;;;;;27.70;82.50;;;;;;5078252;28;19986;-63
2023/06/01 10:42:35;;;;;;;;;;;27.60;82.50;;;;;;5070894;28;19986;-66
2023/06/01 10:45:01;;;;;;;;;;;27.70;82.30;;;;;;5078936;28;19989;-64
2023/06/01 10:47:32;;;;;;;;;;;27.60;83.20;;;;;;5078084;28;19991;-64
2023/06/01 10:49:58;;;;;;;;;;;27.50;82.90;;;;;;5072601;28;20134;-65
2023/06/01 10:52:24;;;;;;;;;;;27.40;83.80;;;;;;5091516;28;20009;-63
2023/06/01 10:54:50;;;;;;;;;;;27.40;83.70;;;;;;5091740;28;19981;-61
2023/06/01 10:57:28;;;;;;;;;;;27.50;83.10;;;;;;5083878;28;19989;-65
2023/06/01 11:00:13;;;;;;;;;;;27.50;83.90;;;;;;5074709;28;20455;-63
2023/06/01 11:02:44;;;;;;;;;;;27.60;82.30;;;;;;5076452;28;19992;-61
2023/06/01 11:05:28;;;;;;;;;;;27.60;80.40;;;;;;5076211;28;19981;-61
2023/06/01 11:07:54;;;;;;;;;;;27.60;79.70;;;;;;5076924;28;20031;-64
2023/06/01 11:10:38;;;;;;;;;;;27.70;79.60;;;;;;5080895;28;19989;-65
2023/06/01 11:13:17;;;;;;;;;;;27.80;79.70;;;;;;5081935;28;20050;-65
2023/06/01 11:16:01;;;;;;;;;;;27.90;80.80;;;;;;5093611;28;19988;-61
2023/06/01 11:18:43;;;;;;;;;;;27.80;81.40;;;;;;5096856;28;20417;-64
2023/06/01 11:21:09;;;;;;;;;;;27.90;78.70;;;;;;5093925;28;19981;-62
2023/06/01 11:23:35;;;;;;;;;;;28.10;79.30;;;;;;5083354;28;20042;-65
2023/06/01 11:26:05;;;;;;;;;;;28.20;78.50;;;;;;5073057;28;20023;-62
2023/06/01 11:28:31;;;;;;;;;;;28.50;81.00;;;;;;5078106;28;19996;-63
2023/06/01 11:30:58;;;;;;;;;;;28.70;83.30;;;;;;5081518;28;19990;-65
2023/06/01 11:33:24;;;;;;;;;;;28.70;81.00;;;;;;5088565;28;20104;-64
2023/06/01 11:35:57;;;;;;;;;;;28.70;79.40;;;;;;5090679;28;20581;-64
2023/06/01 11:38:22;;;;;;;;;;;28.60;79.90;;;;;;5092269;28;20028;-66
2023/06/01 11:41:03;;;;;;;;;;;28.40;78.10;;;;;;5092754;28;20455;-62
2023/06/01 11:43:30;;;;;;;;;;;28.40;80.70;;;;;;5093977;28;20028;-63
2023/06/01 11:46:02;;;;;;;;;;;28.20;80.40;;;;;;5094593;28;20404;-62
2023/06/01 11:48:27;;;;;;;;;;;28.10;82.80;;;;;;5093847;28;20038;-64
2023/06/01 11:50:54;;;;;;;;;;;27.90;81.20;;;;;;5094980;28;19985;-64
2023/06/01 11:53:20;;;;;;;;;;;27.70;82.50;;;;;;5095478;28;20005;-62
2023/06/01 11:55:49;;;;;;;;;;;27.50;81.10;;;;;;5094969;28;20375;-63
2023/06/01 11:58:36;;;;;;;;;;;27.40;81.90;;;;;;5094202;28;20489;-64
2023/06/01 12:01:02;;;;;;;;;;;27.30;81.90;;;;;;5093574;28;20017;-63
2023/06/01 12:03:27;;;;;;;;;;;27.10;81.60;;;;;;5094361;28;20511;-65
2023/06/01 12:05:53;;;;;;;;;;;26.90;82.60;;;;;;5093934;28;20087;-63
2023/06/01 12:08:20;;;;;;;;;;;26.80;83.20;;;;;;5093622;28;19981;-63
2023/06/01 12:10:50;;;;;;;;;;;26.70;83.00;;;;;;5094400;28;19988;-65
2023/06/01 12:13:19;;;;;;;;;;;26.70;83.30;;;;;;5093460;28;20005;-64
2023/06/01 12:15:45;;;;;;;;;;;26.60;84.60;;;;;;5094020;28;20388;-62
2023/06/01 12:18:11;;;;;;;;;;;26.50;85.10;;;;;;5093686;28;19981;-63
2023/06/01 12:20:41;;;;;;;;;;;26.50;83.60;;;;;;5092989;28;19993;-63
2023/06/01 12:23:12;;;;;;;;;;;26.20;82.20;;;;;;5093408;28;20451;-64
2023/06/01 12:25:47;;;;;;;;;;;26.10;84.20;;;;;;5093106;28;20363;-66
2023/06/01 12:28:13;;;;;;;;;;;25.90;84.00;;;;;;5094304;28;20075;-62
2023/06/01 12:30:38;;;;;;;;;;;25.90;83.90;;;;;;5094757;28;20071;-64
2023/06/01 12:33:05;;;;;;;;;;;25.60;86.90;;;;;;5094077;28;20012;-62
2023/06/01 12:35:31;;;;;;;;;;;25.10;89.90;;;;;;5094271;28;20433;-63
2023/06/01 12:38:04;;;;;;;;;;;24.50;91.00;;;;;;5094640;28;20311;-63
2023/06/01 12:40:29;;;;;;;;;;;24.20;92.10;;;;;;5094080;28;19981;-62
2023/06/01 12:42:55;;;;;;;;;;;24.20;92.00;;;;;;5093901;28;20506;-64
2023/06/01 12:45:20;;;;;;;;;;;24.30;92.30;;;;;;5093803;28;20370;-65
2023/06/01 12:47:46;;;;;;;;;;;24.10;92.20;;;;;;5095118;28;19981;-65
2023/06/01 12:50:12;;;;;;;;;;;24.00;93.00;;;;;;5095282;28;19985;-64
2023/06/01 12:52:38;;;;;;;;;;;24.10;93.70;;;;;;5095555;28;20009;-63
2023/06/01 12:55:04;;;;;;;;;;;24.30;94.00;;;;;;5095119;28;19981;-65
2023/06/01 12:57:34;;;;;;;;;;;24.40;94.50;;;;;;5095234;28;19981;-63
2023/06/01 12:59:59;;;;;;;;;;;24.50;94.20;;;;;;5094965;28;19998;-64
2023/06/01 13:02:25;;;;;;;;;;;24.70;94.70;;;;;;5095158;28;20077;-66
2023/06/01 13:04:51;;;;;;;;;;;24.90;94.00;;;;;;5095055;28;19988;-63
2023/06/01 13:07:17;;;;;;;;;;;25.10;93.40;;;;;;5095283;28;20016;-66
2023/06/01 13:09:42;;;;;;;;;;;25.20;93.80;;;;;;5094799;28;20031;-64
2023/06/01 13:12:09;;;;;;;;;;;25.20;95.90;;;;;;5094787;28;20367;-66
2023/06/01 13:14:34;;;;;;;;;;;25.00;96.40;;;;;;5094923;28;19981;-62
2023/06/01 13:17:00;;;;;;;;;;;25.10;96.30;;;;;;5094832;28;19981;-62
2023/06/01 13:19:26;;;;;;;;;;;25.40;95.50;;;;;;5094762;28;20069;-62
2023/06/01 13:21:51;;;;;;;;;;;25.50;95.40;;;;;;5094777;28;20417;-65
2023/06/01 13:24:17;;;;;;;;;;;25.50;95.70;;;;;;5094494;28;20016;-64
2023/06/01 13:26:43;;;;;;;;;;;25.70;96.30;;;;;;5094752;28;20451;-62
2023/06/01 13:29:09;;;;;;;;;;;26.00;96.10;;;;;;5095124;28;19985;-63
2023/06/01 13:31:36;;;;;;;;;;;26.20;95.70;;;;;;5094662;28;20321;-64
2023/06/01 13:34:01;;;;;;;;;;;26.20;95.70;;;;;;5094513;28;20005;-64
2023/06/01 13:36:27;;;;;;;;;;;26.40;96.70;;;;;;5094689;28;20046;-66
2023/06/01 13:38:52;;;;;;;;;;;26.70;95.50;;;;;;5094278;28;19981;-62
2023/06/01 13:41:18;;;;;;;;;;;26.70;95.50;;;;;;5094590;28;20016;-62
2023/06/01 13:43:44;;;;;;;;;;;26.80;95.00;;;;;;5094328;28;19985;-62
2023/06/01 13:46:09;;;;;;;;;;;27.00;94.10;;;;;;5094385;28;20410;-64
2023/06/01 13:48:35;;;;;;;;;;;27.20;95.20;;;;;;5094421;28;20026;-64
2023/06/01 13:51:01;;;;;;;;;;;27.50;92.80;;;;;;5094215;28;20355;-63
2023/06/01 13:53:27;;;;;;;;;;;28.00;92.50;;;;;;5094274;28;20058;-63
2023/06/01 13:55:52;;;;;;;;;;;28.40;92.00;;;;;;5094277;28;20039;-62
2023/06/01 13:58:18;;;;;;;;;;;28.70;91.90;;;;;;5093886;28;19981;-62
2023/06/01 14:00:44;;;;;;;;;;;28.90;90.80;;;;;;5093920;28;20017;-62
2023/06/01 14:03:10;;;;;;;;;;;28.90;90.60;;;;;;5094405;28;20079;-62
2023/06/01 14:05:35;;;;;;;;;;;29.10;91.20;;;;;;5093123;28;20031;-62
2023/06/01 14:08:02;;;;;;;;;;;29.40;89.70;;;;;;5092860;28;20457;-65
2023/06/01 14:10:27;;;;;;;;;;;29.60;87.20;;;;;;5094151;28;20344;-63
2023/06/01 14:12:53;;;;;;;;;;;29.50;86.00;;;;;;5093962;28;20015;-61
2023/06/01 14:15:19;;;;;;;;;;;29.30;88.40;;;;;;5093691;28;20332;-62
2023/06/01 14:17:44;;;;;;;;;;;29.40;88.10;;;;;;5093848;28;19985;-63